sensor_id;sensor_type;location;lat;lon;timestamp;pressure;altitude;pressure_sealevel;temperature;humidity
58471;BME280;44258;51.288;12.068;2022-10-17T00:00:33;101010.59;;;15.90;65.12
58471;BME280;44258;51.288;12.068;2022-10-17T00:03:00;101012.13;;;15.94;65.01
58471;BME280;44258;51.288;12.068;2022-10-17T00:05:27;101012.31;;;15.91;64.89
58471;BME280;44258;51.288;12.068;2022-10-17T00:07:54;101014.66;;;15.83;65.26
58471;BME280;44258;51.288;12.068;2022-10-17T00:10:21;101023.81;;;15.82;65.43
58471;BME280;44258;51.288;12.068;2022-10-17T00:12:49;101018.91;;;15.87;65.46
58471;BME280;44258;51.288;12.068;2022-10-17T00:15:20;101024.91;;;15.92;65.33
58471;BME280;44258;51.288;12.068;2022-10-17T00:17:49;101022.72;;;15.85;65.48
58471;BME280;44258;51.288;12.068;2022-10-17T00:20:15;101023.22;;;15.77;65.88
58471;BME280;44258;51.288;12.068;2022-10-17T00:22:42;101030.03;;;15.70;66.55
58471;BME280;44258;51.288;12.068;2022-10-17T00:25:09;101034.03;;;15.64;66.78
58471;BME280;44258;51.288;12.068;2022-10-17T00:27:37;101026.41;;;15.57;67.01
58471;BME280;44258;51.288;12.068;2022-10-17T00:30:06;101027.78;;;15.49;67.22
58471;BME280;44258;51.288;12.068;2022-10-17T00:32:35;101021.47;;;15.49;67.14
58471;BME280;44258;51.288;12.068;2022-10-17T00:35:04;101021.47;;;15.49;67.10
58471;BME280;44258;51.288;12.068;2022-10-17T00:37:31;101017.41;;;15.56;66.83
58471;BME280;44258;51.288;12.068;2022-10-17T00:39:58;101019.78;;;15.61;66.65
58471;BME280;44258;51.288;12.068;2022-10-17T00:42:25;101016.13;;;15.62;66.67
58471;BME280;44258;51.288;12.068;2022-10-17T00:45:12;101021.84;;;15.57;67.00
58471;BME280;44258;51.288;12.068;2022-10-17T00:47:39;101022.41;;;15.62;66.58
58471;BME280;44258;51.288;12.068;2022-10-17T00:50:10;101016.53;;;15.56;66.59
58471;BME280;44258;51.288;12.068;2022-10-17T00:52:38;101018.25;;;15.57;66.68
58471;BME280;44258;51.288;12.068;2022-10-17T00:55:09;101018.47;;;15.53;66.74
58471;BME280;44258;51.288;12.068;2022-10-17T00:57:38;101014.09;;;15.51;66.78
58471;BME280;44258;51.288;12.068;2022-10-17T01:00:07;101019.84;;;15.46;67.06
58471;BME280;44258;51.288;12.068;2022-10-17T01:02:35;101026.03;;;15.48;67.08
58471;BME280;44258;51.288;12.068;2022-10-17T01:05:03;101032.22;;;15.50;67.19
58471;BME280;44258;51.288;12.068;2022-10-17T01:07:32;101031.25;;;15.51;67.20
58471;BME280;44258;51.288;12.068;2022-10-17T01:09:59;101023.31;;;15.48;67.34
58471;BME280;44258;51.288;12.068;2022-10-17T01:12:32;101019.16;;;15.43;67.67
58471;BME280;44258;51.288;12.068;2022-10-17T01:15:08;101018.41;;;15.41;67.54
58471;BME280;44258;51.288;12.068;2022-10-17T01:17:46;101013.09;;;15.39;67.55
58471;BME280;44258;51.288;12.068;2022-10-17T01:23:44;101021.00;;;15.42;67.43
58471;BME280;44258;51.288;12.068;2022-10-17T01:26:22;101014.91;;;15.39;67.61
58471;BME280;44258;51.288;12.068;2022-10-17T01:29:09;101022.50;;;15.33;67.67
58471;BME280;44258;51.288;12.068;2022-10-17T01:31:45;101016.38;;;15.30;67.80
58471;BME280;44258;51.288;12.068;2022-10-17T01:34:17;101012.22;;;15.24;68.08
58471;BME280;44258;51.288;12.068;2022-10-17T01:36:50;101015.22;;;15.20;68.42
58471;BME280;44258;51.288;12.068;2022-10-17T01:39:23;101011.94;;;15.14;68.76
58471;BME280;44258;51.288;12.068;2022-10-17T01:41:57;101007.41;;;15.15;68.67
58471;BME280;44258;51.288;12.068;2022-10-17T01:44:28;101016.31;;;15.17;68.89
58471;BME280;44258;51.288;12.068;2022-10-17T01:47:04;101016.75;;;15.24;68.73
58471;BME280;44258;51.288;12.068;2022-10-17T01:49:33;101018.00;;;15.32;68.40
58471;BME280;44258;51.288;12.068;2022-10-17T01:52:04;101016.00;;;15.36;68.21
58471;BME280;44258;51.288;12.068;2022-10-17T01:54:37;101017.06;;;15.33;68.50
58471;BME280;44258;51.288;12.068;2022-10-17T01:57:09;101014.63;;;15.29;68.69
58471;BME280;44258;51.288;12.068;2022-10-17T01:59:40;101014.81;;;15.26;68.81
58471;BME280;44258;51.288;12.068;2022-10-17T02:02:10;101012.22;;;15.24;68.97
58471;BME280;44258;51.288;12.068;2022-10-17T02:04:39;101008.44;;;15.27;68.98
58471;BME280;44258;51.288;12.068;2022-10-17T02:07:06;101001.28;;;15.26;68.95
58471;BME280;44258;51.288;12.068;2022-10-17T02:09:33;101001.69;;;15.34;68.80
58471;BME280;44258;51.288;12.068;2022-10-17T02:12:12;101003.44;;;15.35;68.79
58471;BME280;44258;51.288;12.068;2022-10-17T02:14:52;100999.34;;;15.42;68.47
58471;BME280;44258;51.288;12.068;2022-10-17T02:17:31;100998.38;;;15.43;68.46
58471;BME280;44258;51.288;12.068;2022-10-17T02:20:08;101004.34;;;15.48;68.42
58471;BME280;44258;51.288;12.068;2022-10-17T02:22:39;101005.03;;;15.52;68.10
58471;BME280;44258;51.288;12.068;2022-10-17T02:25:13;101003.84;;;15.56;67.92
58471;BME280;44258;51.288;12.068;2022-10-17T02:27:47;101011.66;;;15.61;67.76
58471;BME280;44258;51.288;12.068;2022-10-17T02:30:22;101009.72;;;15.63;67.66
58471;BME280;44258;51.288;12.068;2022-10-17T02:32:59;101013.19;;;15.65;67.50
58471;BME280;44258;51.288;12.068;2022-10-17T02:35:29;101003.44;;;15.62;67.49
58471;BME280;44258;51.288;12.068;2022-10-17T02:37:57;101009.53;;;15.66;67.19
58471;BME280;44258;51.288;12.068;2022-10-17T02:40:25;101016.50;;;15.70;67.23
58471;BME280;44258;51.288;12.068;2022-10-17T02:42:55;101016.38;;;15.71;66.83
58471;BME280;44258;51.288;12.068;2022-10-17T02:45:23;101012.88;;;15.69;66.96
58471;BME280;44258;51.288;12.068;2022-10-17T02:47:58;101012.78;;;15.71;66.94
58471;BME280;44258;51.288;12.068;2022-10-17T02:50:32;101005.84;;;15.67;66.91
58471;BME280;44258;51.288;12.068;2022-10-17T02:53:08;101015.03;;;15.64;66.94
58471;BME280;44258;51.288;12.068;2022-10-17T02:55:40;101013.59;;;15.59;67.25
58471;BME280;44258;51.288;12.068;2022-10-17T02:58:12;101015.56;;;15.57;67.48
58471;BME280;44258;51.288;12.068;2022-10-17T03:00:42;101014.38;;;15.61;67.32
58471;BME280;44258;51.288;12.068;2022-10-17T03:03:22;101013.97;;;15.67;67.23
58471;BME280;44258;51.288;12.068;2022-10-17T03:05:50;101017.03;;;15.75;66.81
58471;BME280;44258;51.288;12.068;2022-10-17T03:08:18;101016.84;;;15.78;66.49
58471;BME280;44258;51.288;12.068;2022-10-17T03:10:45;101012.38;;;15.77;66.57
58471;BME280;44258;51.288;12.068;2022-10-17T03:13:12;101016.50;;;15.70;67.09
58471;BME280;44258;51.288;12.068;2022-10-17T03:15:38;101007.78;;;15.65;67.49
58471;BME280;44258;51.288;12.068;2022-10-17T03:18:05;101014.63;;;15.70;67.62
58471;BME280;44258;51.288;12.068;2022-10-17T03:20:33;101017.44;;;15.69;67.34
58471;BME280;44258;51.288;12.068;2022-10-17T03:23:00;101010.41;;;15.66;67.36
58471;BME280;44258;51.288;12.068;2022-10-17T03:25:26;101010.28;;;15.68;67.30
58471;BME280;44258;51.288;12.068;2022-10-17T03:27:53;101013.78;;;15.70;67.43
58471;BME280;44258;51.288;12.068;2022-10-17T03:30:19;101023.31;;;15.75;66.94
58471;BME280;44258;51.288;12.068;2022-10-17T03:32:46;101011.06;;;15.70;66.82
58471;BME280;44258;51.288;12.068;2022-10-17T03:35:13;101021.16;;;15.68;67.11
58471;BME280;44258;51.288;12.068;2022-10-17T03:37:41;101013.19;;;15.65;67.43
58471;BME280;44258;51.288;12.068;2022-10-17T03:40:08;101018.97;;;15.73;67.14
58471;BME280;44258;51.288;12.068;2022-10-17T03:42:35;101014.53;;;15.72;67.00
58471;BME280;44258;51.288;12.068;2022-10-17T03:45:02;101009.03;;;15.59;67.44
58471;BME280;44258;51.288;12.068;2022-10-17T03:47:29;101016.50;;;15.70;67.05
58471;BME280;44258;51.288;12.068;2022-10-17T03:49:56;101017.91;;;15.75;66.86
58471;BME280;44258;51.288;12.068;2022-10-17T03:52:22;101020.16;;;15.69;66.97
58471;BME280;44258;51.288;12.068;2022-10-17T03:54:50;101010.94;;;15.71;66.67
58471;BME280;44258;51.288;12.068;2022-10-17T03:57:17;101018.97;;;15.73;66.82
58471;BME280;44258;51.288;12.068;2022-10-17T03:59:44;101024.63;;;15.70;66.79
58471;BME280;44258;51.288;12.068;2022-10-17T04:02:10;101023.44;;;15.74;66.64
58471;BME280;44258;51.288;12.068;2022-10-17T04:04:37;101027.47;;;15.81;66.01
58471;BME280;44258;51.288;12.068;2022-10-17T04:07:04;101025.25;;;15.73;66.48
58471;BME280;44258;51.288;12.068;2022-10-17T04:09:30;101028.97;;;15.72;66.58
58471;BME280;44258;51.288;12.068;2022-10-17T04:11:58;101029.16;;;15.69;66.62
58471;BME280;44258;51.288;12.068;2022-10-17T04:14:25;101015.72;;;15.68;66.84
58471;BME280;44258;51.288;12.068;2022-10-17T04:16:52;101014.28;;;15.62;66.90
58471;BME280;44258;51.288;12.068;2022-10-17T04:19:18;101024.50;;;15.71;66.72
58471;BME280;44258;51.288;12.068;2022-10-17T04:21:45;101022.47;;;15.75;66.62
58471;BME280;44258;51.288;12.068;2022-10-17T04:24:12;101030.50;;;15.77;66.59
58471;BME280;44258;51.288;12.068;2022-10-17T04:26:38;101028.19;;;15.70;66.77
58471;BME280;44258;51.288;12.068;2022-10-17T04:29:06;101029.81;;;15.73;66.59
58471;BME280;44258;51.288;12.068;2022-10-17T04:31:33;101030.91;;;15.70;66.64
58471;BME280;44258;51.288;12.068;2022-10-17T04:34:00;101035.47;;;15.70;66.62
58471;BME280;44258;51.288;12.068;2022-10-17T04:36:26;101028.88;;;15.74;66.16
58471;BME280;44258;51.288;12.068;2022-10-17T04:38:53;101024.72;;;15.68;66.46
58471;BME280;44258;51.288;12.068;2022-10-17T04:41:20;101033.41;;;15.73;66.07
58471;BME280;44258;51.288;12.068;2022-10-17T04:43:46;101025.38;;;15.72;66.04
58471;BME280;44258;51.288;12.068;2022-10-17T04:46:14;101028.16;;;15.58;66.50
58471;BME280;44258;51.288;12.068;2022-10-17T04:48:41;101032.59;;;15.59;66.22
58471;BME280;44258;51.288;12.068;2022-10-17T04:51:10;101032.81;;;15.56;66.09
58471;BME280;44258;51.288;12.068;2022-10-17T04:53:38;101037.16;;;15.58;66.01
58471;BME280;44258;51.288;12.068;2022-10-17T04:56:09;101034.06;;;15.50;66.34
58471;BME280;44258;51.288;12.068;2022-10-17T04:58:36;101036.47;;;15.54;66.20
58471;BME280;44258;51.288;12.068;2022-10-17T05:01:06;101034.53;;;15.57;66.13
58471;BME280;44258;51.288;12.068;2022-10-17T05:03:35;101041.50;;;15.61;65.90
58471;BME280;44258;51.288;12.068;2022-10-17T05:06:05;101042.56;;;15.58;65.84
58471;BME280;44258;51.288;12.068;2022-10-17T05:08:32;101044.97;;;15.63;65.58
58471;BME280;44258;51.288;12.068;2022-10-17T05:10:59;101044.09;;;15.62;65.75
58471;BME280;44258;51.288;12.068;2022-10-17T05:13:26;101045.53;;;15.68;65.47
58471;BME280;44258;51.288;12.068;2022-10-17T05:15:53;101039.22;;;15.67;65.27
58471;BME280;44258;51.288;12.068;2022-10-17T05:18:19;101038.28;;;15.68;65.11
58471;BME280;44258;51.288;12.068;2022-10-17T05:20:47;101042.06;;;15.66;65.11
58471;BME280;44258;51.288;12.068;2022-10-17T05:23:14;101039.34;;;15.66;65.08
58471;BME280;44258;51.288;12.068;2022-10-17T05:25:40;101039.94;;;15.57;65.21
58471;BME280;44258;51.288;12.068;2022-10-17T05:28:07;101047.72;;;15.48;65.39
58471;BME280;44258;51.288;12.068;2022-10-17T05:30:34;101054.13;;;15.47;65.42
58471;BME280;44258;51.288;12.068;2022-10-17T05:33:01;101055.75;;;15.50;65.29
58471;BME280;44258;51.288;12.068;2022-10-17T05:35:28;101046.63;;;15.51;65.17
58471;BME280;44258;51.288;12.068;2022-10-17T05:37:56;101042.97;;;15.52;65.05
58471;BME280;44258;51.288;12.068;2022-10-17T05:40:23;101054.69;;;15.52;64.94
58471;BME280;44258;51.288;12.068;2022-10-17T05:42:50;101046.34;;;15.56;64.82
58471;BME280;44258;51.288;12.068;2022-10-17T05:45:16;101054.69;;;15.52;64.92
58471;BME280;44258;51.288;12.068;2022-10-17T05:47:43;101048.19;;;15.55;64.69
58471;BME280;44258;51.288;12.068;2022-10-17T05:50:10;101057.19;;;15.56;64.72
58471;BME280;44258;51.288;12.068;2022-10-17T05:52:36;101057.69;;;15.48;65.01
58471;BME280;44258;51.288;12.068;2022-10-17T05:55:06;101048.13;;;15.42;65.07
58471;BME280;44258;51.288;12.068;2022-10-17T05:57:32;101060.19;;;15.51;64.83
58471;BME280;44258;51.288;12.068;2022-10-17T05:59:59;101058.94;;;15.57;64.75
58471;BME280;44258;51.288;12.068;2022-10-17T06:02:26;101054.72;;;15.65;64.53
58471;BME280;44258;51.288;12.068;2022-10-17T06:04:52;101065.06;;;15.73;64.31
58471;BME280;44258;51.288;12.068;2022-10-17T06:07:19;101069.13;;;15.80;64.22
58471;BME280;44258;51.288;12.068;2022-10-17T06:09:45;101075.19;;;15.84;64.09
58471;BME280;44258;51.288;12.068;2022-10-17T06:12:13;101081.53;;;15.84;63.89
58471;BME280;44258;51.288;12.068;2022-10-17T06:14:40;101082.97;;;15.90;63.86
58471;BME280;44258;51.288;12.068;2022-10-17T06:17:07;101084.38;;;15.95;63.93
58471;BME280;44258;51.288;12.068;2022-10-17T06:19:33;101086.78;;;16.00;63.71
58471;BME280;44258;51.288;12.068;2022-10-17T06:22:01;101097.34;;;16.05;63.48
58471;BME280;44258;51.288;12.068;2022-10-17T06:24:28;101098.09;;;16.07;63.58
58471;BME280;44258;51.288;12.068;2022-10-17T06:26:54;101106.25;;;16.07;63.80
58471;BME280;44258;51.288;12.068;2022-10-17T06:29:23;101107.88;;;16.09;64.12
58471;BME280;44258;51.288;12.068;2022-10-17T06:31:50;101110.94;;;16.18;63.83
58471;BME280;44258;51.288;12.068;2022-10-17T06:34:17;101116.44;;;16.30;63.71
58471;BME280;44258;51.288;12.068;2022-10-17T06:36:43;101112.88;;;16.43;63.55
58471;BME280;44258;51.288;12.068;2022-10-17T06:39:10;101122.59;;;16.60;63.37
58471;BME280;44258;51.288;12.068;2022-10-17T06:41:37;101119.13;;;16.70;63.17
58471;BME280;44258;51.288;12.068;2022-10-17T06:44:03;101116.97;;;16.76;63.17
58471;BME280;44258;51.288;12.068;2022-10-17T06:46:37;101115.22;;;16.74;62.59
58471;BME280;44258;51.288;12.068;2022-10-17T06:49:04;101111.22;;;16.80;62.91
58471;BME280;44258;51.288;12.068;2022-10-17T06:51:33;101111.31;;;16.91;62.42
58471;BME280;44258;51.288;12.068;2022-10-17T06:54:00;101128.16;;;17.09;62.59
58471;BME280;44258;51.288;12.068;2022-10-17T06:56:27;101113.53;;;17.25;62.41
58471;BME280;44258;51.288;12.068;2022-10-17T06:58:53;101116.97;;;17.40;62.30
58471;BME280;44258;51.288;12.068;2022-10-17T07:01:20;101111.28;;;17.56;61.78
58471;BME280;44258;51.288;12.068;2022-10-17T07:03:48;101119.06;;;17.73;61.61
58471;BME280;44258;51.288;12.068;2022-10-17T07:06:15;101127.78;;;17.78;60.62
58471;BME280;44258;51.288;12.068;2022-10-17T07:08:42;101125.25;;;17.88;60.82
58471;BME280;44258;51.288;12.068;2022-10-17T07:11:11;101124.09;;;18.03;60.56
58471;BME280;44258;51.288;12.068;2022-10-17T07:13:38;101132.19;;;18.29;60.41
58471;BME280;44258;51.288;12.068;2022-10-17T07:16:05;101130.84;;;18.34;59.83
58471;BME280;44258;51.288;12.068;2022-10-17T07:18:32;101135.75;;;18.53;59.46
58471;BME280;44258;51.288;12.068;2022-10-17T07:21:00;101141.81;;;18.57;58.55
58471;BME280;44258;51.288;12.068;2022-10-17T07:23:28;101139.38;;;18.65;59.26
58471;BME280;44258;51.288;12.068;2022-10-17T07:25:58;101141.72;;;18.70;59.02
58471;BME280;44258;51.288;12.068;2022-10-17T07:28:25;101142.38;;;18.73;58.93
58471;BME280;44258;51.288;12.068;2022-10-17T07:30:52;101142.38;;;18.73;58.36
58471;BME280;44258;51.288;12.068;2022-10-17T07:33:19;101154.59;;;18.68;58.95
58471;BME280;44258;51.288;12.068;2022-10-17T07:35:45;101146.22;;;18.71;58.36
58471;BME280;44258;51.288;12.068;2022-10-17T07:38:13;101152.53;;;18.71;58.58
58471;BME280;44258;51.288;12.068;2022-10-17T07:40:40;101146.81;;;18.74;58.61
58471;BME280;44258;51.288;12.068;2022-10-17T07:43:06;101152.34;;;18.62;58.10
58471;BME280;44258;51.288;12.068;2022-10-17T07:45:33;101156.09;;;18.61;58.40
58471;BME280;44258;51.288;12.068;2022-10-17T07:47:59;101149.13;;;18.57;58.24
58471;BME280;44258;51.288;12.068;2022-10-17T07:50:26;101151.97;;;18.55;58.00
58471;BME280;44258;51.288;12.068;2022-10-17T07:52:53;101156.78;;;18.51;57.92
58471;BME280;44258;51.288;12.068;2022-10-17T07:55:21;101144.59;;;18.44;58.12
58471;BME280;44258;51.288;12.068;2022-10-17T07:57:48;101159.38;;;18.53;57.93
58471;BME280;44258;51.288;12.068;2022-10-17T08:00:14;101152.78;;;18.44;57.94
58471;BME280;44258;51.288;12.068;2022-10-17T08:02:41;101143.63;;;18.45;58.20
58471;BME280;44258;51.288;12.068;2022-10-17T08:05:08;101151.69;;;18.47;58.26
58471;BME280;44258;51.288;12.068;2022-10-17T08:07:34;101162.34;;;18.50;57.85
58471;BME280;44258;51.288;12.068;2022-10-17T08:10:01;101165.81;;;18.52;57.75
58471;BME280;44258;51.288;12.068;2022-10-17T08:12:29;101159.59;;;18.50;57.99
58471;BME280;44258;51.288;12.068;2022-10-17T08:14:58;101165.59;;;18.55;58.02
58471;BME280;44258;51.288;12.068;2022-10-17T08:17:25;101167.00;;;18.72;58.14
58471;BME280;44258;51.288;12.068;2022-10-17T08:19:55;101163.59;;;18.81;57.55
58471;BME280;44258;51.288;12.068;2022-10-17T08:22:22;101171.28;;;18.87;57.59
58471;BME280;44258;51.288;12.068;2022-10-17T08:24:48;101169.59;;;18.98;57.59
58471;BME280;44258;51.288;12.068;2022-10-17T08:27:15;101177.63;;;18.99;57.55
58471;BME280;44258;51.288;12.068;2022-10-17T08:29:49;101179.66;;;19.08;57.29
58471;BME280;44258;51.288;12.068;2022-10-17T08:32:18;101176.22;;;19.18;56.99
58471;BME280;44258;51.288;12.068;2022-10-17T08:34:45;101168.03;;;19.29;57.20
58471;BME280;44258;51.288;12.068;2022-10-17T08:37:12;101170.53;;;19.43;56.70
58471;BME280;44258;51.288;12.068;2022-10-17T08:39:39;101159.47;;;19.56;56.52
58471;BME280;44258;51.288;12.068;2022-10-17T08:42:25;101153.91;;;19.69;56.30
58471;BME280;44258;51.288;12.068;2022-10-17T08:45:04;101160.72;;;19.74;55.82
58471;BME280;44258;51.288;12.068;2022-10-17T08:47:38;101163.72;;;19.83;55.43
58471;BME280;44258;51.288;12.068;2022-10-17T08:50:09;101152.91;;;19.92;55.53
58471;BME280;44258;51.288;12.068;2022-10-17T08:52:39;101159.75;;;19.87;55.23
58471;BME280;44258;51.288;12.068;2022-10-17T08:55:13;101162.09;;;19.80;55.20
58471;BME280;44258;51.288;12.068;2022-10-17T08:57:41;101155.91;;;19.89;55.16
58471;BME280;44258;51.288;12.068;2022-10-17T09:00:14;101160.00;;;19.95;55.32
58471;BME280;44258;51.288;12.068;2022-10-17T09:02:51;101160.69;;;20.08;55.35
58471;BME280;44258;51.288;12.068;2022-10-17T09:05:26;101153.63;;;20.06;54.57
58471;BME280;44258;51.288;12.068;2022-10-17T09:08:01;101148.41;;;20.03;54.47
58471;BME280;44258;51.288;12.068;2022-10-17T09:10:33;101145.94;;;20.00;54.97
58471;BME280;44258;51.288;12.068;2022-10-17T09:13:09;101138.84;;;20.08;55.05
58471;BME280;44258;51.288;12.068;2022-10-17T09:16:00;101141.03;;;20.26;55.03
58471;BME280;44258;51.288;12.068;2022-10-17T09:18:33;101142.81;;;20.48;54.58
58471;BME280;44258;51.288;12.068;2022-10-17T09:21:12;101145.78;;;20.56;54.83
58471;BME280;44258;51.288;12.068;2022-10-17T09:23:44;101154.53;;;20.71;54.43
58471;BME280;44258;51.288;12.068;2022-10-17T09:26:12;101142.22;;;20.77;54.13
58471;BME280;44258;51.288;12.068;2022-10-17T09:28:40;101143.69;;;20.81;53.61
58471;BME280;44258;51.288;12.068;2022-10-17T09:31:11;101148.44;;;20.88;53.30
58471;BME280;44258;51.288;12.068;2022-10-17T09:33:43;101144.06;;;20.97;53.00
58471;BME280;44258;51.288;12.068;2022-10-17T09:36:13;101144.16;;;21.17;53.00
58471;BME280;44258;51.288;12.068;2022-10-17T09:38:42;101149.19;;;21.32;52.67
58471;BME280;44258;51.288;12.068;2022-10-17T09:41:16;101155.69;;;21.41;52.99
58471;BME280;44258;51.288;12.068;2022-10-17T09:43:44;101142.66;;;21.55;52.47
58471;BME280;44258;51.288;12.068;2022-10-17T09:46:17;101142.84;;;21.63;52.20
58471;BME280;44258;51.288;12.068;2022-10-17T09:48:50;101136.72;;;21.80;51.83
58471;BME280;44258;51.288;12.068;2022-10-17T09:51:18;101143.22;;;21.89;51.21
58471;BME280;44258;51.288;12.068;2022-10-17T09:53:48;101147.53;;;21.91;51.20
58471;BME280;44258;51.288;12.068;2022-10-17T09:56:17;101146.56;;;21.92;50.91
58471;BME280;44258;51.288;12.068;2022-10-17T09:58:46;101138.53;;;22.01;51.07
58471;BME280;44258;51.288;12.068;2022-10-17T10:01:19;101137.06;;;22.06;50.70
58471;BME280;44258;51.288;12.068;2022-10-17T10:03:47;101137.69;;;22.20;50.35
58471;BME280;44258;51.288;12.068;2022-10-17T10:06:15;101141.00;;;22.23;50.00
58471;BME280;44258;51.288;12.068;2022-10-17T10:08:50;101150.09;;;22.33;49.81
58471;BME280;44258;51.288;12.068;2022-10-17T10:11:19;101147.50;;;22.42;49.44
58471;BME280;44258;51.288;12.068;2022-10-17T10:13:48;101144.47;;;22.45;49.33
58471;BME280;44258;51.288;12.068;2022-10-17T10:16:20;101146.19;;;22.65;49.46
58471;BME280;44258;51.288;12.068;2022-10-17T10:18:49;101146.38;;;22.73;48.71
58471;BME280;44258;51.288;12.068;2022-10-17T10:21:18;101146.09;;;22.86;48.61
58471;BME280;44258;51.288;12.068;2022-10-17T10:24:02;101141.72;;;22.84;48.32
58471;BME280;44258;51.288;12.068;2022-10-17T10:26:33;101134.66;;;22.91;48.03
58471;BME280;44258;51.288;12.068;2022-10-17T10:29:05;101133.50;;;22.93;47.86
58471;BME280;44258;51.288;12.068;2022-10-17T10:31:36;101132.16;;;23.07;47.71
58471;BME280;44258;51.288;12.068;2022-10-17T10:34:15;101135.34;;;23.12;46.86
58471;BME280;44258;51.288;12.068;2022-10-17T10:36:47;101131.00;;;23.10;46.24
58471;BME280;44258;51.288;12.068;2022-10-17T10:39:26;101124.50;;;23.11;46.52
58471;BME280;44258;51.288;12.068;2022-10-17T10:41:54;101131.53;;;23.23;45.95
58471;BME280;44258;51.288;12.068;2022-10-17T10:44:23;101124.19;;;23.14;46.68
58471;BME280;44258;51.288;12.068;2022-10-17T10:47:17;101130.13;;;23.19;46.65
58471;BME280;44258;51.288;12.068;2022-10-17T10:49:44;101122.84;;;23.28;46.67
58471;BME280;44258;51.288;12.068;2022-10-17T10:52:17;101118.66;;;23.33;46.46
58471;BME280;44258;51.288;12.068;2022-10-17T10:54:52;101119.50;;;23.44;46.32
58471;BME280;44258;51.288;12.068;2022-10-17T10:57:23;101112.25;;;23.52;46.61
58471;BME280;44258;51.288;12.068;2022-10-17T10:59:56;101114.44;;;23.39;46.29
58471;BME280;44258;51.288;12.068;2022-10-17T11:02:30;101112.72;;;23.38;45.98
58471;BME280;44258;51.288;12.068;2022-10-17T11:05:03;101118.59;;;23.53;45.48
58471;BME280;44258;51.288;12.068;2022-10-17T11:07:34;101117.13;;;23.59;45.56
58471;BME280;44258;51.288;12.068;2022-10-17T11:10:11;101117.84;;;23.61;45.48
58471;BME280;44258;51.288;12.068;2022-10-17T11:12:43;101110.44;;;23.61;45.24
58471;BME280;44258;51.288;12.068;2022-10-17T11:15:17;101125.31;;;23.68;45.04
58471;BME280;44258;51.288;12.068;2022-10-17T11:17:53;101114.44;;;23.77;45.03
58471;BME280;44258;51.288;12.068;2022-10-17T11:20:28;101119.41;;;23.91;44.70
58471;BME280;44258;51.288;12.068;2022-10-17T11:23:01;101120.00;;;23.85;44.60
58471;BME280;44258;51.288;12.068;2022-10-17T11:25:36;101119.25;;;23.92;44.38
58471;BME280;44258;51.288;12.068;2022-10-17T11:28:09;101111.88;;;23.93;44.51
58471;BME280;44258;51.288;12.068;2022-10-17T11:30:43;101116.25;;;23.86;44.22
58471;BME280;44258;51.288;12.068;2022-10-17T11:33:16;101108.16;;;23.84;43.80
58471;BME280;44258;51.288;12.068;2022-10-17T11:35:46;101103.47;;;23.95;43.69
58471;BME280;44258;51.288;12.068;2022-10-17T11:38:17;101097.84;;;23.96;44.10
58471;BME280;44258;51.288;12.068;2022-10-17T11:40:49;101096.50;;;24.00;43.96
58471;BME280;44258;51.288;12.068;2022-10-17T11:43:18;101095.00;;;24.06;43.23
58471;BME280;44258;51.288;12.068;2022-10-17T11:45:54;101100.09;;;24.01;42.85
58471;BME280;44258;51.288;12.068;2022-10-17T11:48:27;101101.53;;;24.05;43.04
58471;BME280;44258;51.288;12.068;2022-10-17T11:51:03;101104.38;;;24.13;43.57
58471;BME280;44258;51.288;12.068;2022-10-17T11:53:33;101102.56;;;24.22;43.28
58471;BME280;44258;51.288;12.068;2022-10-17T11:56:09;101101.81;;;24.29;43.17
58471;BME280;44258;51.288;12.068;2022-10-17T11:58:40;101101.41;;;24.24;42.63
58471;BME280;44258;51.288;12.068;2022-10-17T12:01:15;101104.22;;;24.32;42.56
58471;BME280;44258;51.288;12.068;2022-10-17T12:04:03;101104.28;;;24.41;42.78
58471;BME280;44258;51.288;12.068;2022-10-17T12:06:41;101099.53;;;24.43;41.55
58471;BME280;44258;51.288;12.068;2022-10-17T12:09:18;101106.88;;;24.42;41.42
58471;BME280;44258;51.288;12.068;2022-10-17T12:11:51;101102.16;;;24.52;41.70
58471;BME280;44258;51.288;12.068;2022-10-17T12:14:37;101095.50;;;24.55;41.83
58471;BME280;44258;51.288;12.068;2022-10-17T12:17:05;101086.78;;;24.60;41.67
58471;BME280;44258;51.288;12.068;2022-10-17T12:19:35;101085.38;;;24.56;41.84
58471;BME280;44258;51.288;12.068;2022-10-17T12:22:05;101084.88;;;24.60;41.79
58471;BME280;44258;51.288;12.068;2022-10-17T12:24:43;101083.53;;;24.64;41.64
58471;BME280;44258;51.288;12.068;2022-10-17T12:27:23;101087.97;;;24.57;40.67
58471;BME280;44258;51.288;12.068;2022-10-17T12:29:58;101077.59;;;24.51;40.56
58471;BME280;44258;51.288;12.068;2022-10-17T12:32:25;101077.66;;;24.59;40.39
58471;BME280;44258;51.288;12.068;2022-10-17T12:34:54;101084.34;;;24.39;39.06
58471;BME280;44258;51.288;12.068;2022-10-17T12:38:00;101080.34;;;24.51;39.23
58471;BME280;44258;51.288;12.068;2022-10-17T12:40:56;101079.00;;;24.55;38.99
58471;BME280;44258;51.288;12.068;2022-10-17T12:43:56;101083.88;;;24.61;39.60
58471;BME280;44258;51.288;12.068;2022-10-17T12:46:55;101071.41;;;24.49;39.05
58471;BME280;44258;51.288;12.068;2022-10-17T12:49:40;101081.38;;;24.50;39.05
58471;BME280;44258;51.288;12.068;2022-10-17T12:52:29;101079.47;;;24.50;39.36
58471;BME280;44258;51.288;12.068;2022-10-17T12:55:16;101076.72;;;24.50;39.74
58471;BME280;44258;51.288;12.068;2022-10-17T12:57:50;101070.16;;;24.43;39.36
58471;BME280;44258;51.288;12.068;2022-10-17T13:00:22;101072.28;;;24.31;39.69